sensor_id;sensor_type;location;lat;lon;timestamp;P1;durP1;ratioP1;P2;durP2;ratioP2
6642;SDS011;3357;48.050;7.800;2022-12-20T00:00:47;6.73;;;4.60;;
6642;SDS011;3357;48.050;7.800;2022-12-20T00:03:12;7.20;;;5.17;;
6642;SDS011;3357;48.050;7.800;2022-12-20T00:05:39;5.73;;;4.60;;
6642;SDS011;3357;48.050;7.800;2022-12-20T00:08:05;7.57;;;4.93;;
6642;SDS011;3357;48.050;7.800;2022-12-20T00:10:34;5.80;;;4.57;;
6642;SDS011;3357;48.050;7.800;2022-12-20T00:13:00;9.13;;;4.87;;
6642;SDS011;3357;48.050;7.800;2022-12-20T00:15:25;6.00;;;4.20;;
6642;SDS011;3357;48.050;7.800;2022-12-20T00:17:51;5.83;;;4.47;;
6642;SDS011;3357;48.050;7.800;2022-12-20T00:20:16;5.43;;;4.13;;
6642;SDS011;3357;48.050;7.800;2022-12-20T00:22:41;5.70;;;3.80;;
6642;SDS011;3357;48.050;7.800;2022-12-20T00:25:07;3.77;;;3.23;;
6642;SDS011;3357;48.050;7.800;2022-12-20T00:27:32;7.30;;;4.00;;
6642;SDS011;3357;48.050;7.800;2022-12-20T00:29:57;4.73;;;2.90;;
6642;SDS011;3357;48.050;7.800;2022-12-20T00:32:22;4.57;;;3.37;;
6642;SDS011;3357;48.050;7.800;2022-12-20T00:34:48;5.37;;;3.30;;
6642;SDS011;3357;48.050;7.800;2022-12-20T00:37:13;5.57;;;4.80;;
6642;SDS011;3357;48.050;7.800;2022-12-20T00:39:38;4.40;;;3.67;;
6642;SDS011;3357;48.050;7.800;2022-12-20T00:42:03;6.20;;;4.40;;
6642;SDS011;3357;48.050;7.800;2022-12-20T00:44:29;5.97;;;3.70;;
6642;SDS011;3357;48.050;7.800;2022-12-20T00:46:54;10.13;;;3.90;;
6642;SDS011;3357;48.050;7.800;2022-12-20T00:49:19;3.47;;;3.27;;
6642;SDS011;3357;48.050;7.800;2022-12-20T00:51:45;3.97;;;3.20;;
6642;SDS011;3357;48.050;7.800;2022-12-20T00:54:11;3.90;;;3.50;;
6642;SDS011;3357;48.050;7.800;2022-12-20T00:56:36;4.33;;;3.00;;
6642;SDS011;3357;48.050;7.800;2022-12-20T00:59:01;3.83;;;2.70;;
6642;SDS011;3357;48.050;7.800;2022-12-20T01:01:28;2.93;;;2.60;;
6642;SDS011;3357;48.050;7.800;2022-12-20T01:03:55;4.00;;;2.60;;
6642;SDS011;3357;48.050;7.800;2022-12-20T01:06:21;3.30;;;3.00;;
6642;SDS011;3357;48.050;7.800;2022-12-20T01:08:47;2.80;;;2.27;;
6642;SDS011;3357;48.050;7.800;2022-12-20T01:11:16;2.80;;;2.60;;
6642;SDS011;3357;48.050;7.800;2022-12-20T01:13:45;3.53;;;2.13;;
6642;SDS011;3357;48.050;7.800;2022-12-20T01:16:14;2.60;;;2.40;;
6642;SDS011;3357;48.050;7.800;2022-12-20T01:18:42;2.87;;;2.60;;
6642;SDS011;3357;48.050;7.800;2022-12-20T01:21:09;1.97;;;1.80;;
6642;SDS011;3357;48.050;7.800;2022-12-20T01:23:36;5.73;;;2.00;;
6642;SDS011;3357;48.050;7.800;2022-12-20T01:26:02;2.07;;;1.97;;
6642;SDS011;3357;48.050;7.800;2022-12-20T01:28:29;1.63;;;1.40;;
6642;SDS011;3357;48.050;7.800;2022-12-20T01:30:54;1.73;;;1.63;;
6642;SDS011;3357;48.050;7.800;2022-12-20T01:33:20;2.00;;;1.80;;
6642;SDS011;3357;48.050;7.800;2022-12-20T01:35:59;1.83;;;1.73;;
6642;SDS011;3357;48.050;7.800;2022-12-20T01:38:26;1.67;;;1.50;;
6642;SDS011;3357;48.050;7.800;2022-12-20T01:40:52;3.37;;;1.97;;
6642;SDS011;3357;48.050;7.800;2022-12-20T01:43:18;3.87;;;1.80;;
6642;SDS011;3357;48.050;7.800;2022-12-20T01:45:43;2.53;;;1.93;;
6642;SDS011;3357;48.050;7.800;2022-12-20T01:48:09;2.80;;;2.30;;
6642;SDS011;3357;48.050;7.800;2022-12-20T01:50:35;1.77;;;1.67;;
6642;SDS011;3357;48.050;7.800;2022-12-20T01:53:02;2.30;;;1.80;;
6642;SDS011;3357;48.050;7.800;2022-12-20T01:55:28;1.87;;;1.77;;
6642;SDS011;3357;48.050;7.800;2022-12-20T01:57:55;2.00;;;1.80;;
6642;SDS011;3357;48.050;7.800;2022-12-20T02:00:24;5.63;;;1.93;;
6642;SDS011;3357;48.050;7.800;2022-12-20T02:02:49;1.43;;;1.33;;
6642;SDS011;3357;48.050;7.800;2022-12-20T02:05:16;1.70;;;1.60;;
6642;SDS011;3357;48.050;7.800;2022-12-20T02:07:45;1.77;;;1.67;;
6642;SDS011;3357;48.050;7.800;2022-12-20T02:10:13;2.40;;;1.80;;
6642;SDS011;3357;48.050;7.800;2022-12-20T02:12:40;1.40;;;1.30;;
6642;SDS011;3357;48.050;7.800;2022-12-20T02:20:56;2.50;;;1.37;;
6642;SDS011;3357;48.050;7.800;2022-12-20T02:23:55;1.50;;;1.40;;
6642;SDS011;3357;48.050;7.800;2022-12-20T02:26:38;1.40;;;1.30;;
6642;SDS011;3357;48.050;7.800;2022-12-20T02:29:19;1.50;;;1.40;;
6642;SDS011;3357;48.050;7.800;2022-12-20T02:32:08;1.30;;;1.13;;
6642;SDS011;3357;48.050;7.800;2022-12-20T02:34:41;1.40;;;1.30;;
6642;SDS011;3357;48.050;7.800;2022-12-20T02:37:07;2.20;;;1.80;;
6642;SDS011;3357;48.050;7.800;2022-12-20T02:39:33;6.50;;;1.50;;
6642;SDS011;3357;48.050;7.800;2022-12-20T02:42:00;2.60;;;1.50;;
6642;SDS011;3357;48.050;7.800;2022-12-20T02:44:29;1.73;;;1.30;;
6642;SDS011;3357;48.050;7.800;2022-12-20T02:47:22;1.30;;;1.20;;
6642;SDS011;3357;48.050;7.800;2022-12-20T02:49:50;2.87;;;1.33;;
6642;SDS011;3357;48.050;7.800;2022-12-20T02:52:18;1.93;;;1.10;;
6642;SDS011;3357;48.050;7.800;2022-12-20T02:54:45;1.57;;;1.47;;
6642;SDS011;3357;48.050;7.800;2022-12-20T02:57:17;1.40;;;1.30;;
6642;SDS011;3357;48.050;7.800;2022-12-20T02:59:48;1.30;;;1.10;;
6642;SDS011;3357;48.050;7.800;2022-12-20T03:02:17;2.43;;;1.60;;
6642;SDS011;3357;48.050;7.800;2022-12-20T03:04:42;3.37;;;3.07;;
6642;SDS011;3357;48.050;7.800;2022-12-20T03:07:09;2.90;;;1.47;;
6642;SDS011;3357;48.050;7.800;2022-12-20T03:09:38;2.43;;;1.50;;
6642;SDS011;3357;48.050;7.800;2022-12-20T03:12:05;1.47;;;1.37;;
6642;SDS011;3357;48.050;7.800;2022-12-20T03:14:31;1.77;;;1.50;;
6642;SDS011;3357;48.050;7.800;2022-12-20T03:16:57;1.60;;;1.50;;
6642;SDS011;3357;48.050;7.800;2022-12-20T03:19:22;1.20;;;1.10;;
6642;SDS011;3357;48.050;7.800;2022-12-20T03:21:48;1.40;;;1.30;;
6642;SDS011;3357;48.050;7.800;2022-12-20T03:24:14;1.90;;;1.80;;
6642;SDS011;3357;48.050;7.800;2022-12-20T03:26:40;2.10;;;1.33;;
6642;SDS011;3357;48.050;7.800;2022-12-20T03:29:05;2.40;;;1.47;;
6642;SDS011;3357;48.050;7.800;2022-12-20T03:31:31;1.90;;;1.80;;
6642;SDS011;3357;48.050;7.800;2022-12-20T03:33:57;1.60;;;1.50;;
6642;SDS011;3357;48.050;7.800;2022-12-20T03:36:22;1.63;;;1.53;;
6642;SDS011;3357;48.050;7.800;2022-12-20T03:38:51;1.90;;;1.50;;
6642;SDS011;3357;48.050;7.800;2022-12-20T03:41:17;3.40;;;1.73;;
6642;SDS011;3357;48.050;7.800;2022-12-20T03:43:43;1.10;;;1.10;;
6642;SDS011;3357;48.050;7.800;2022-12-20T03:46:08;1.63;;;1.50;;
6642;SDS011;3357;48.050;7.800;2022-12-20T03:48:33;1.60;;;1.50;;
6642;SDS011;3357;48.050;7.800;2022-12-20T03:50:58;1.40;;;1.30;;
6642;SDS011;3357;48.050;7.800;2022-12-20T03:53:24;3.10;;;1.70;;
6642;SDS011;3357;48.050;7.800;2022-12-20T03:55:49;2.20;;;1.73;;
6642;SDS011;3357;48.050;7.800;2022-12-20T03:58:14;1.77;;;1.67;;
6642;SDS011;3357;48.050;7.800;2022-12-20T04:00:39;2.13;;;1.57;;
6642;SDS011;3357;48.050;7.800;2022-12-20T04:03:05;2.07;;;1.60;;
6642;SDS011;3357;48.050;7.800;2022-12-20T04:05:30;1.73;;;1.60;;
6642;SDS011;3357;48.050;7.800;2022-12-20T04:07:55;1.50;;;1.40;;
6642;SDS011;3357;48.050;7.800;2022-12-20T04:10:21;1.77;;;1.67;;
6642;SDS011;3357;48.050;7.800;2022-12-20T04:12:46;1.80;;;1.60;;
6642;SDS011;3357;48.050;7.800;2022-12-20T04:15:11;2.90;;;1.63;;
6642;SDS011;3357;48.050;7.800;2022-12-20T04:17:36;2.00;;;1.80;;
6642;SDS011;3357;48.050;7.800;2022-12-20T04:20:02;1.70;;;1.60;;
6642;SDS011;3357;48.050;7.800;2022-12-20T04:22:43;1.70;;;1.60;;
6642;SDS011;3357;48.050;7.800;2022-12-20T04:25:11;3.13;;;1.80;;
6642;SDS011;3357;48.050;7.800;2022-12-20T04:27:37;2.43;;;2.17;;
6642;SDS011;3357;48.050;7.800;2022-12-20T04:30:02;3.50;;;2.10;;
6642;SDS011;3357;48.050;7.800;2022-12-20T04:32:28;2.00;;;1.80;;
6642;SDS011;3357;48.050;7.800;2022-12-20T04:34:53;2.20;;;2.00;;
6642;SDS011;3357;48.050;7.800;2022-12-20T04:37:18;2.80;;;2.10;;
6642;SDS011;3357;48.050;7.800;2022-12-20T04:39:43;3.63;;;1.80;;
6642;SDS011;3357;48.050;7.800;2022-12-20T04:42:09;2.10;;;1.70;;
6642;SDS011;3357;48.050;7.800;2022-12-20T04:44:34;2.30;;;1.80;;
6642;SDS011;3357;48.050;7.800;2022-12-20T04:46:59;2.80;;;2.20;;
6642;SDS011;3357;48.050;7.800;2022-12-20T04:49:24;1.70;;;1.60;;
6642;SDS011;3357;48.050;7.800;2022-12-20T04:51:50;2.33;;;1.67;;
6642;SDS011;3357;48.050;7.800;2022-12-20T04:54:15;2.30;;;1.87;;
6642;SDS011;3357;48.050;7.800;2022-12-20T04:56:40;2.03;;;1.87;;
6642;SDS011;3357;48.050;7.800;2022-12-20T04:59:06;2.33;;;1.80;;
6642;SDS011;3357;48.050;7.800;2022-12-20T05:01:31;2.20;;;2.00;;
6642;SDS011;3357;48.050;7.800;2022-12-20T05:03:56;1.77;;;1.67;;
6642;SDS011;3357;48.050;7.800;2022-12-20T05:06:22;3.40;;;2.10;;
6642;SDS011;3357;48.050;7.800;2022-12-20T05:08:47;3.53;;;2.20;;
6642;SDS011;3357;48.050;7.800;2022-12-20T05:11:12;3.10;;;2.03;;
6642;SDS011;3357;48.050;7.800;2022-12-20T05:13:38;2.30;;;1.90;;
6642;SDS011;3357;48.050;7.800;2022-12-20T05:16:03;2.40;;;2.20;;
6642;SDS011;3357;48.050;7.800;2022-12-20T05:18:29;2.13;;;2.00;;
6642;SDS011;3357;48.050;7.800;2022-12-20T05:20:55;3.33;;;3.00;;
6642;SDS011;3357;48.050;7.800;2022-12-20T05:23:40;4.03;;;2.90;;
6642;SDS011;3357;48.050;7.800;2022-12-20T05:26:25;8.33;;;4.63;;
6642;SDS011;3357;48.050;7.800;2022-12-20T05:28:55;6.20;;;4.23;;
6642;SDS011;3357;48.050;7.800;2022-12-20T05:31:20;7.90;;;4.70;;
6642;SDS011;3357;48.050;7.800;2022-12-20T05:33:46;7.47;;;4.80;;
6642;SDS011;3357;48.050;7.800;2022-12-20T05:36:11;6.00;;;3.87;;
6642;SDS011;3357;48.050;7.800;2022-12-20T05:38:37;5.90;;;4.20;;
6642;SDS011;3357;48.050;7.800;2022-12-20T05:41:03;5.20;;;3.60;;
6642;SDS011;3357;48.050;7.800;2022-12-20T05:43:32;13.13;;;5.47;;
6642;SDS011;3357;48.050;7.800;2022-12-20T05:45:57;8.37;;;4.93;;
6642;SDS011;3357;48.050;7.800;2022-12-20T05:48:22;7.50;;;4.00;;
6642;SDS011;3357;48.050;7.800;2022-12-20T05:50:48;8.73;;;4.47;;
6642;SDS011;3357;48.050;7.800;2022-12-20T05:53:14;7.80;;;4.30;;
6642;SDS011;3357;48.050;7.800;2022-12-20T05:55:45;8.67;;;4.70;;
6642;SDS011;3357;48.050;7.800;2022-12-20T05:58:12;6.80;;;4.60;;
6642;SDS011;3357;48.050;7.800;2022-12-20T06:00:38;7.53;;;5.17;;
6642;SDS011;3357;48.050;7.800;2022-12-20T06:03:07;7.40;;;4.17;;
6642;SDS011;3357;48.050;7.800;2022-12-20T06:05:34;6.33;;;4.60;;
6642;SDS011;3357;48.050;7.800;2022-12-20T06:08:00;8.50;;;5.30;;
6642;SDS011;3357;48.050;7.800;2022-12-20T06:10:26;6.07;;;4.20;;
6642;SDS011;3357;48.050;7.800;2022-12-20T06:12:51;7.83;;;3.63;;
6642;SDS011;3357;48.050;7.800;2022-12-20T06:15:16;9.77;;;4.03;;
6642;SDS011;3357;48.050;7.800;2022-12-20T06:17:41;5.27;;;3.60;;
6642;SDS011;3357;48.050;7.800;2022-12-20T06:20:07;5.17;;;3.97;;
6642;SDS011;3357;48.050;7.800;2022-12-20T06:22:32;2.60;;;2.40;;
6642;SDS011;3357;48.050;7.800;2022-12-20T06:24:58;5.00;;;3.07;;
6642;SDS011;3357;48.050;7.800;2022-12-20T06:27:24;3.00;;;2.60;;
6642;SDS011;3357;48.050;7.800;2022-12-20T06:29:49;3.00;;;2.80;;
6642;SDS011;3357;48.050;7.800;2022-12-20T06:32:18;3.70;;;3.20;;
6642;SDS011;3357;48.050;7.800;2022-12-20T06:34:44;7.13;;;3.17;;
6642;SDS011;3357;48.050;7.800;2022-12-20T06:37:09;6.30;;;3.57;;
6642;SDS011;3357;48.050;7.800;2022-12-20T06:39:34;6.20;;;4.00;;
6642;SDS011;3357;48.050;7.800;2022-12-20T06:41:59;4.23;;;3.43;;
6642;SDS011;3357;48.050;7.800;2022-12-20T06:44:25;4.63;;;3.70;;
6642;SDS011;3357;48.050;7.800;2022-12-20T06:46:50;4.53;;;3.87;;
6642;SDS011;3357;48.050;7.800;2022-12-20T06:49:15;5.30;;;3.83;;
6642;SDS011;3357;48.050;7.800;2022-12-20T06:51:42;4.63;;;3.93;;
6642;SDS011;3357;48.050;7.800;2022-12-20T06:54:07;6.30;;;4.43;;
6642;SDS011;3357;48.050;7.800;2022-12-20T06:56:32;5.73;;;3.80;;
6642;SDS011;3357;48.050;7.800;2022-12-20T06:58:57;6.00;;;3.80;;
6642;SDS011;3357;48.050;7.800;2022-12-20T07:01:23;6.27;;;4.70;;
6642;SDS011;3357;48.050;7.800;2022-12-20T07:03:48;10.10;;;6.13;;
6642;SDS011;3357;48.050;7.800;2022-12-20T07:06:15;9.10;;;6.00;;
6642;SDS011;3357;48.050;7.800;2022-12-20T07:08:40;6.23;;;5.40;;
6642;SDS011;3357;48.050;7.800;2022-12-20T07:11:06;8.40;;;5.30;;
6642;SDS011;3357;48.050;7.800;2022-12-20T07:13:32;5.80;;;4.30;;
6642;SDS011;3357;48.050;7.800;2022-12-20T07:15:58;6.50;;;4.67;;
6642;SDS011;3357;48.050;7.800;2022-12-20T07:18:24;7.53;;;5.17;;
6642;SDS011;3357;48.050;7.800;2022-12-20T07:20:49;5.53;;;5.00;;
6642;SDS011;3357;48.050;7.800;2022-12-20T07:23:14;5.47;;;4.87;;
6642;SDS011;3357;48.050;7.800;2022-12-20T07:25:40;9.20;;;5.60;;
6642;SDS011;3357;48.050;7.800;2022-12-20T07:28:05;8.20;;;6.17;;
6642;SDS011;3357;48.050;7.800;2022-12-20T07:30:31;8.63;;;5.13;;
6642;SDS011;3357;48.050;7.800;2022-12-20T07:32:56;6.27;;;4.90;;
6642;SDS011;3357;48.050;7.800;2022-12-20T07:35:22;6.97;;;4.30;;
6642;SDS011;3357;48.050;7.800;2022-12-20T07:37:47;4.33;;;4.00;;
6642;SDS011;3357;48.050;7.800;2022-12-20T07:40:13;3.60;;;3.30;;
6642;SDS011;3357;48.050;7.800;2022-12-20T07:42:40;8.13;;;3.30;;
6642;SDS011;3357;48.050;7.800;2022-12-20T07:45:05;4.33;;;3.20;;
6642;SDS011;3357;48.050;7.800;2022-12-20T07:47:31;8.37;;;4.30;;
6642;SDS011;3357;48.050;7.800;2022-12-20T07:49:57;34.47;;;14.33;;
6642;SDS011;3357;48.050;7.800;2022-12-20T07:52:22;13.93;;;7.30;;
6642;SDS011;3357;48.050;7.800;2022-12-20T07:54:50;12.80;;;9.23;;
6642;SDS011;3357;48.050;7.800;2022-12-20T07:57:25;15.10;;;10.13;;
6642;SDS011;3357;48.050;7.800;2022-12-20T07:59:55;12.87;;;8.57;;
6642;SDS011;3357;48.050;7.800;2022-12-20T08:02:24;17.83;;;8.93;;
6642;SDS011;3357;48.050;7.800;2022-12-20T08:04:51;12.93;;;7.80;;
6642;SDS011;3357;48.050;7.800;2022-12-20T08:07:18;12.50;;;7.33;;
6642;SDS011;3357;48.050;7.800;2022-12-20T08:09:44;10.37;;;8.03;;
6642;SDS011;3357;48.050;7.800;2022-12-20T08:12:11;10.00;;;5.27;;
6642;SDS011;3357;48.050;7.800;2022-12-20T08:14:38;8.37;;;6.20;;
6642;SDS011;3357;48.050;7.800;2022-12-20T08:17:04;10.43;;;6.87;;
6642;SDS011;3357;48.050;7.800;2022-12-20T08:19:29;8.73;;;5.90;;
6642;SDS011;3357;48.050;7.800;2022-12-20T08:21:54;8.03;;;5.50;;
6642;SDS011;3357;48.050;7.800;2022-12-20T08:24:20;13.80;;;7.43;;
6642;SDS011;3357;48.050;7.800;2022-12-20T08:26:45;13.73;;;8.67;;
6642;SDS011;3357;48.050;7.800;2022-12-20T08:29:11;12.60;;;7.53;;
6642;SDS011;3357;48.050;7.800;2022-12-20T08:31:37;13.23;;;7.60;;
6642;SDS011;3357;48.050;7.800;2022-12-20T08:34:03;13.80;;;6.23;;
6642;SDS011;3357;48.050;7.800;2022-12-20T08:36:30;20.23;;;10.33;;
6642;SDS011;3357;48.050;7.800;2022-12-20T08:38:55;26.97;;;9.90;;
6642;SDS011;3357;48.050;7.800;2022-12-20T08:41:21;20.63;;;10.40;;
6642;SDS011;3357;48.050;7.800;2022-12-20T08:43:46;29.07;;;11.90;;
6642;SDS011;3357;48.050;7.800;2022-12-20T08:46:11;26.33;;;11.30;;
6642;SDS011;3357;48.050;7.800;2022-12-20T08:48:37;16.23;;;8.10;;
6642;SDS011;3357;48.050;7.800;2022-12-20T08:51:04;13.83;;;6.60;;
6642;SDS011;3357;48.050;7.800;2022-12-20T08:53:32;9.07;;;5.13;;
6642;SDS011;3357;48.050;7.800;2022-12-20T08:56:02;13.93;;;7.03;;
6642;SDS011;3357;48.050;7.800;2022-12-20T08:58:28;13.10;;;7.10;;
6642;SDS011;3357;48.050;7.800;2022-12-20T09:00:53;14.20;;;7.30;;
6642;SDS011;3357;48.050;7.800;2022-12-20T09:03:24;21.40;;;9.13;;
6642;SDS011;3357;48.050;7.800;2022-12-20T09:05:51;25.57;;;11.90;;
6642;SDS011;3357;48.050;7.800;2022-12-20T09:08:17;33.23;;;12.03;;
6642;SDS011;3357;48.050;7.800;2022-12-20T09:10:42;14.30;;;6.60;;
6642;SDS011;3357;48.050;7.800;2022-12-20T09:13:08;15.10;;;7.07;;
6642;SDS011;3357;48.050;7.800;2022-12-20T09:15:34;15.43;;;6.33;;
6642;SDS011;3357;48.050;7.800;2022-12-20T09:17:59;15.23;;;7.20;;
6642;SDS011;3357;48.050;7.800;2022-12-20T09:20:25;9.50;;;5.30;;
6642;SDS011;3357;48.050;7.800;2022-12-20T09:22:50;7.80;;;4.47;;
6642;SDS011;3357;48.050;7.800;2022-12-20T09:25:15;10.10;;;5.00;;
6642;SDS011;3357;48.050;7.800;2022-12-20T09:27:41;6.23;;;3.53;;
6642;SDS011;3357;48.050;7.800;2022-12-20T09:30:06;4.80;;;4.10;;
6642;SDS011;3357;48.050;7.800;2022-12-20T09:32:32;4.73;;;3.63;;
6642;SDS011;3357;48.050;7.800;2022-12-20T09:34:58;7.97;;;4.13;;
6642;SDS011;3357;48.050;7.800;2022-12-20T09:37:23;4.20;;;3.80;;
6642;SDS011;3357;48.050;7.800;2022-12-20T09:39:48;4.43;;;2.77;;
6642;SDS011;3357;48.050;7.800;2022-12-20T09:42:21;3.87;;;2.77;;
6642;SDS011;3357;48.050;7.800;2022-12-20T09:44:51;3.10;;;2.90;;
6642;SDS011;3357;48.050;7.800;2022-12-20T09:47:25;5.17;;;2.80;;
6642;SDS011;3357;48.050;7.800;2022-12-20T09:49:52;4.53;;;2.97;;
6642;SDS011;3357;48.050;7.800;2022-12-20T09:55:27;3.47;;;2.73;;
6642;SDS011;3357;48.050;7.800;2022-12-20T10:00:27;4.00;;;2.53;;
6642;SDS011;3357;48.050;7.800;2022-12-20T10:02:54;5.37;;;2.07;;
6642;SDS011;3357;48.050;7.800;2022-12-20T10:05:32;3.07;;;2.63;;
6642;SDS011;3357;48.050;7.800;2022-12-20T10:08:06;2.73;;;2.13;;
6642;SDS011;3357;48.050;7.800;2022-12-20T10:10:55;4.53;;;2.70;;
6642;SDS011;3357;48.050;7.800;2022-12-20T10:13:34;2.97;;;2.70;;
6642;SDS011;3357;48.050;7.800;2022-12-20T10:24:18;19.00;;;10.30;;
6642;SDS011;3357;48.050;7.800;2022-12-20T10:26:47;22.80;;;12.40;;
6642;SDS011;3357;48.050;7.800;2022-12-20T10:29:16;10.10;;;6.30;;
6642;SDS011;3357;48.050;7.800;2022-12-20T10:31:41;5.20;;;4.00;;
6642;SDS011;3357;48.050;7.800;2022-12-20T10:34:14;6.67;;;4.10;;
6642;SDS011;3357;48.050;7.800;2022-12-20T10:36:42;5.00;;;3.60;;
6642;SDS011;3357;48.050;7.800;2022-12-20T10:39:08;13.40;;;5.03;;
6642;SDS011;3357;48.050;7.800;2022-12-20T10:44:25;8.60;;;5.03;;
6642;SDS011;3357;48.050;7.800;2022-12-20T10:46:59;8.77;;;5.50;;
6642;SDS011;3357;48.050;7.800;2022-12-20T10:49:32;6.73;;;4.30;;
6642;SDS011;3357;48.050;7.800;2022-12-20T10:52:12;5.23;;;4.07;;
6642;SDS011;3357;48.050;7.800;2022-12-20T10:54:41;10.40;;;4.40;;
6642;SDS011;3357;48.050;7.800;2022-12-20T10:59:44;10.90;;;6.20;;
6642;SDS011;3357;48.050;7.800;2022-12-20T11:02:24;13.17;;;8.73;;
6642;SDS011;3357;48.050;7.800;2022-12-20T11:04:58;15.90;;;8.43;;
6642;SDS011;3357;48.050;7.800;2022-12-20T11:10:20;16.73;;;9.10;;
6642;SDS011;3357;48.050;7.800;2022-12-20T11:13:00;16.67;;;8.43;;
6642;SDS011;3357;48.050;7.800;2022-12-20T11:15:28;31.73;;;12.30;;
6642;SDS011;3357;48.050;7.800;2022-12-20T11:17:55;23.70;;;10.50;;
6642;SDS011;3357;48.050;7.800;2022-12-20T11:25:35;14.43;;;8.50;;
6642;SDS011;3357;48.050;7.800;2022-12-20T11:37:16;9.43;;;5.60;;
6642;SDS011;3357;48.050;7.800;2022-12-20T11:45:14;5.30;;;4.23;;
6642;SDS011;3357;48.050;7.800;2022-12-20T11:50:33;7.93;;;5.43;;
6642;SDS011;3357;48.050;7.800;2022-12-20T11:56:12;9.57;;;5.70;;
6642;SDS011;3357;48.050;7.800;2022-12-20T12:01:16;9.27;;;5.83;;
6642;SDS011;3357;48.050;7.800;2022-12-20T12:03:52;5.77;;;5.13;;
6642;SDS011;3357;48.050;7.800;2022-12-20T12:06:28;7.57;;;4.43;;
6642;SDS011;3357;48.050;7.800;2022-12-20T12:11:30;5.73;;;3.93;;
6642;SDS011;3357;48.050;7.800;2022-12-20T12:13:59;6.53;;;4.37;;
6642;SDS011;3357;48.050;7.800;2022-12-20T12:16:26;7.50;;;4.87;;
6642;SDS011;3357;48.050;7.800;2022-12-20T12:18:54;13.87;;;4.23;;
6642;SDS011;3357;48.050;7.800;2022-12-20T12:21:30;8.57;;;4.50;;
6642;SDS011;3357;48.050;7.800;2022-12-20T12:26:41;3.23;;;2.30;;
6642;SDS011;3357;48.050;7.800;2022-12-20T12:29:13;1.90;;;1.80;;
6642;SDS011;3357;48.050;7.800;2022-12-20T12:31:41;2.53;;;2.17;;
6642;SDS011;3357;48.050;7.800;2022-12-20T12:34:16;3.53;;;1.80;;
6642;SDS011;3357;48.050;7.800;2022-12-20T12:38:00;5.80;;;2.90;;
6642;SDS011;3357;48.050;7.800;2022-12-20T12:42:35;3.43;;;1.83;;
6642;SDS011;3357;48.050;7.800;2022-12-20T12:47:58;2.50;;;1.67;;
6642;SDS011;3357;48.050;7.800;2022-12-20T12:50:41;5.37;;;1.77;;
6642;SDS011;3357;48.050;7.800;2022-12-20T12:53:13;5.90;;;1.73;;
6642;SDS011;3357;48.050;7.800;2022-12-20T12:58:13;5.33;;;2.10;;
6642;SDS011;3357;48.050;7.800;2022-12-20T13:00:55;3.10;;;1.80;;
6642;SDS011;3357;48.050;7.800;2022-12-20T13:11:30;4.60;;;2.10;;
6642;SDS011;3357;48.050;7.800;2022-12-20T13:16:45;2.23;;;1.60;;
6642;SDS011;3357;48.050;7.800;2022-12-20T13:21:54;4.40;;;1.73;;
6642;SDS011;3357;48.050;7.800;2022-12-20T13:27:14;3.43;;;2.00;;
6642;SDS011;3357;48.050;7.800;2022-12-20T13:40:22;2.87;;;1.90;;
6642;SDS011;3357;48.050;7.800;2022-12-20T13:42:57;2.43;;;1.80;;
6642;SDS011;3357;48.050;7.800;2022-12-20T13:45:28;3.13;;;1.90;;
6642;SDS011;3357;48.050;7.800;2022-12-20T13:47:55;2.40;;;2.20;;
6642;SDS011;3357;48.050;7.800;2022-12-20T13:50:27;2.73;;;2.10;;
6642;SDS011;3357;48.050;7.800;2022-12-20T13:52:56;1.80;;;1.17;;
6642;SDS011;3357;48.050;7.800;2022-12-20T13:55:26;2.07;;;1.33;;
6642;SDS011;3357;48.050;7.800;2022-12-20T13:57:56;1.90;;;1.10;;
6642;SDS011;3357;48.050;7.800;2022-12-20T14:00:23;2.13;;;1.60;;
6642;SDS011;3357;48.050;7.800;2022-12-20T14:02:49;6.87;;;2.97;;
6642;SDS011;3357;48.050;7.800;2022-12-20T14:07:46;2.93;;;1.57;;
6642;SDS011;3357;48.050;7.800;2022-12-20T14:10:20;2.37;;;1.50;;
6642;SDS011;3357;48.050;7.800;2022-12-20T14:12:48;3.43;;;2.07;;
6642;SDS011;3357;48.050;7.800;2022-12-20T14:17:53;6.93;;;1.30;;
6642;SDS011;3357;48.050;7.800;2022-12-20T14:20:21;1.83;;;1.57;;
6642;SDS011;3357;48.050;7.800;2022-12-20T14:25:17;3.87;;;2.00;;
6642;SDS011;3357;48.050;7.800;2022-12-20T14:27:51;5.77;;;2.10;;
6642;SDS011;3357;48.050;7.800;2022-12-20T14:30:24;2.60;;;1.50;;
6642;SDS011;3357;48.050;7.800;2022-12-20T14:32:51;5.00;;;1.77;;
6642;SDS011;3357;48.050;7.800;2022-12-20T14:35:18;2.93;;;1.83;;
6642;SDS011;3357;48.050;7.800;2022-12-20T14:37:51;4.87;;;1.83;;
6642;SDS011;3357;48.050;7.800;2022-12-20T14:40:23;5.20;;;2.00;;
6642;SDS011;3357;48.050;7.800;2022-12-20T14:42:49;2.60;;;1.60;;
6642;SDS011;3357;48.050;7.800;2022-12-20T14:45:17;2.87;;;1.80;;
6642;SDS011;3357;48.050;7.800;2022-12-20T14:50:40;7.23;;;2.00;;
6642;SDS011;3357;48.050;7.800;2022-12-20T14:53:19;2.93;;;1.70;;
6642;SDS011;3357;48.050;7.800;2022-12-20T14:55:48;3.67;;;2.00;;
6642;SDS011;3357;48.050;7.800;2022-12-20T14:58:30;2.20;;;1.47;;
6642;SDS011;3357;48.050;7.800;2022-12-20T15:00:59;2.73;;;1.87;;
6642;SDS011;3357;48.050;7.800;2022-12-20T15:03:50;6.50;;;2.60;;
6642;SDS011;3357;48.050;7.800;2022-12-20T15:09:14;5.03;;;2.60;;
6642;SDS011;3357;48.050;7.800;2022-12-20T15:11:40;3.90;;;2.20;;
6642;SDS011;3357;48.050;7.800;2022-12-20T15:14:17;3.13;;;2.40;;
6642;SDS011;3357;48.050;7.800;2022-12-20T15:16:47;5.10;;;2.40;;
6642;SDS011;3357;48.050;7.800;2022-12-20T15:19:13;5.33;;;2.90;;
6642;SDS011;3357;48.050;7.800;2022-12-20T15:21:39;7.60;;;2.50;;
6642;SDS011;3357;48.050;7.800;2022-12-20T15:24:14;4.90;;;3.03;;
6642;SDS011;3357;48.050;7.800;2022-12-20T15:26:40;6.47;;;2.47;;
6642;SDS011;3357;48.050;7.800;2022-12-20T15:29:08;7.90;;;3.67;;
6642;SDS011;3357;48.050;7.800;2022-12-20T15:31:42;4.20;;;2.23;;
6642;SDS011;3357;48.050;7.800;2022-12-20T15:34:12;4.77;;;2.40;;
6642;SDS011;3357;48.050;7.800;2022-12-20T15:36:39;6.50;;;2.93;;
6642;SDS011;3357;48.050;7.800;2022-12-20T15:39:05;3.43;;;2.50;;
6642;SDS011;3357;48.050;7.800;2022-12-20T15:41:31;6.13;;;2.40;;
6642;SDS011;3357;48.050;7.800;2022-12-20T15:44:10;2.27;;;1.70;;
6642;SDS011;3357;48.050;7.800;2022-12-20T15:46:40;4.60;;;2.80;;
6642;SDS011;3357;48.050;7.800;2022-12-20T15:49:07;6.43;;;2.87;;
6642;SDS011;3357;48.050;7.800;2022-12-20T15:51:36;5.30;;;2.50;;
6642;SDS011;3357;48.050;7.800;2022-12-20T15:54:05;5.00;;;2.47;;
6642;SDS011;3357;48.050;7.800;2022-12-20T15:56:34;5.43;;;2.50;;
6642;SDS011;3357;48.050;7.800;2022-12-20T15:58:59;4.33;;;2.53;;
6642;SDS011;3357;48.050;7.800;2022-12-20T16:01:30;2.57;;;1.60;;
6642;SDS011;3357;48.050;7.800;2022-12-20T16:03:58;2.90;;;1.83;;
6642;SDS011;3357;48.050;7.800;2022-12-20T16:06:24;4.90;;;2.23;;
6642;SDS011;3357;48.050;7.800;2022-12-20T16:08:50;3.60;;;2.30;;
6642;SDS011;3357;48.050;7.800;2022-12-20T16:11:25;3.03;;;2.13;;
6642;SDS011;3357;48.050;7.800;2022-12-20T16:13:55;6.53;;;2.23;;
6642;SDS011;3357;48.050;7.800;2022-12-20T16:16:22;7.10;;;2.80;;
6642;SDS011;3357;48.050;7.800;2022-12-20T16:18:50;5.50;;;2.83;;
6642;SDS011;3357;48.050;7.800;2022-12-20T16:21:18;5.77;;;3.93;;
6642;SDS011;3357;48.050;7.800;2022-12-20T16:23:45;7.90;;;4.10;;
6642;SDS011;3357;48.050;7.800;2022-12-20T16:26:14;11.03;;;4.97;;
6642;SDS011;3357;48.050;7.800;2022-12-20T16:28:41;7.57;;;4.23;;
6642;SDS011;3357;48.050;7.800;2022-12-20T16:31:10;8.07;;;3.67;;
6642;SDS011;3357;48.050;7.800;2022-12-20T16:33:40;8.20;;;3.57;;
6642;SDS011;3357;48.050;7.800;2022-12-20T16:36:05;17.23;;;4.00;;
6642;SDS011;3357;48.050;7.800;2022-12-20T16:38:32;4.43;;;3.57;;
6642;SDS011;3357;48.050;7.800;2022-12-20T16:41:00;5.63;;;4.60;;
6642;SDS011;3357;48.050;7.800;2022-12-20T16:43:35;14.70;;;5.37;;
6642;SDS011;3357;48.050;7.800;2022-12-20T16:46:00;22.90;;;9.30;;
6642;SDS011;3357;48.050;7.800;2022-12-20T16:48:26;35.93;;;12.30;;
6642;SDS011;3357;48.050;7.800;2022-12-20T16:50:51;29.30;;;11.43;;
6642;SDS011;3357;48.050;7.800;2022-12-20T16:53:17;24.37;;;10.80;;
6642;SDS011;3357;48.050;7.800;2022-12-20T16:55:43;18.43;;;7.27;;
6642;SDS011;3357;48.050;7.800;2022-12-20T16:58:08;12.93;;;6.10;;
6642;SDS011;3357;48.050;7.800;2022-12-20T17:00:34;14.73;;;6.70;;
6642;SDS011;3357;48.050;7.800;2022-12-20T17:03:01;13.10;;;6.60;;
6642;SDS011;3357;48.050;7.800;2022-12-20T17:05:27;21.10;;;7.73;;
6642;SDS011;3357;48.050;7.800;2022-12-20T17:07:55;21.27;;;8.77;;